sensor_id;sensor_type;location;lat;lon;timestamp;temperature;humidity
6988;DHT22;3534;49.960;8.018;2023-04-01T00:01:52;11.40;99.90
6988;DHT22;3534;49.960;8.018;2023-04-01T00:04:19;11.30;99.90
6988;DHT22;3534;49.960;8.018;2023-04-01T00:06:46;11.30;99.90
6988;DHT22;3534;49.960;8.018;2023-04-01T00:09:15;11.30;99.90
6988;DHT22;3534;49.960;8.018;2023-04-01T00:11:41;11.30;99.90
6988;DHT22;3534;49.960;8.018;2023-04-01T00:14:08;11.30;99.90
6988;DHT22;3534;49.960;8.018;2023-04-01T00:16:35;11.30;99.90
6988;DHT22;3534;49.960;8.018;2023-04-01T00:19:02;11.30;99.90
6988;DHT22;3534;49.960;8.018;2023-04-01T00:21:29;11.30;99.90
6988;DHT22;3534;49.960;8.018;2023-04-01T00:23:57;11.20;99.90
6988;DHT22;3534;49.960;8.018;2023-04-01T00:26:25;11.20;99.90
6988;DHT22;3534;49.960;8.018;2023-04-01T00:28:52;11.20;99.90
6988;DHT22;3534;49.960;8.018;2023-04-01T00:31:19;11.20;99.90
6988;DHT22;3534;49.960;8.018;2023-04-01T00:33:46;11.20;99.90
6988;DHT22;3534;49.960;8.018;2023-04-01T00:36:15;11.10;99.90
6988;DHT22;3534;49.960;8.018;2023-04-01T00:38:42;11.10;99.90
6988;DHT22;3534;49.960;8.018;2023-04-01T00:41:10;11.10;99.90
6988;DHT22;3534;49.960;8.018;2023-04-01T00:43:41;11.10;99.90
6988;DHT22;3534;49.960;8.018;2023-04-01T00:46:08;11.20;99.90
6988;DHT22;3534;49.960;8.018;2023-04-01T00:48:38;11.10;99.90
6988;DHT22;3534;49.960;8.018;2023-04-01T00:51:08;11.10;99.90
6988;DHT22;3534;49.960;8.018;2023-04-01T00:53:38;11.10;99.90
6988;DHT22;3534;49.960;8.018;2023-04-01T00:56:09;11.10;99.90
6988;DHT22;3534;49.960;8.018;2023-04-01T00:58:42;11.10;99.90
6988;DHT22;3534;49.960;8.018;2023-04-01T01:01:10;11.10;99.90
6988;DHT22;3534;49.960;8.018;2023-04-01T01:03:36;11.10;99.90
6988;DHT22;3534;49.960;8.018;2023-04-01T01:06:15;11.10;99.90
6988;DHT22;3534;49.960;8.018;2023-04-01T01:09:01;11.10;99.90
6988;DHT22;3534;49.960;8.018;2023-04-01T01:11:37;11.10;99.90
6988;DHT22;3534;49.960;8.018;2023-04-01T01:14:12;11.10;99.90
6988;DHT22;3534;49.960;8.018;2023-04-01T01:16:44;11.10;99.90
6988;DHT22;3534;49.960;8.018;2023-04-01T01:25:16;11.20;99.90
6988;DHT22;3534;49.960;8.018;2023-04-01T01:27:49;11.20;99.90
6988;DHT22;3534;49.960;8.018;2023-04-01T01:30:36;11.20;99.90
6988;DHT22;3534;49.960;8.018;2023-04-01T01:36:13;11.20;99.90
6988;DHT22;3534;49.960;8.018;2023-04-01T01:38:40;11.20;99.90
6988;DHT22;3534;49.960;8.018;2023-04-01T01:41:08;11.20;99.90
6988;DHT22;3534;49.960;8.018;2023-04-01T01:43:38;11.20;99.90
6988;DHT22;3534;49.960;8.018;2023-04-01T01:46:09;11.20;99.90
6988;DHT22;3534;49.960;8.018;2023-04-01T01:48:38;11.20;99.90
6988;DHT22;3534;49.960;8.018;2023-04-01T01:51:06;11.20;99.90
6988;DHT22;3534;49.960;8.018;2023-04-01T01:53:35;11.20;99.90
6988;DHT22;3534;49.960;8.018;2023-04-01T01:56:03;11.20;99.90
6988;DHT22;3534;49.960;8.018;2023-04-01T01:58:32;11.20;99.90
6988;DHT22;3534;49.960;8.018;2023-04-01T02:01:02;11.20;99.90
6988;DHT22;3534;49.960;8.018;2023-04-01T02:03:33;11.20;99.90
6988;DHT22;3534;49.960;8.018;2023-04-01T02:06:03;11.20;99.90
6988;DHT22;3534;49.960;8.018;2023-04-01T02:08:33;11.20;99.90
6988;DHT22;3534;49.960;8.018;2023-04-01T02:11:05;11.20;99.90
6988;DHT22;3534;49.960;8.018;2023-04-01T02:13:36;11.20;99.90
6988;DHT22;3534;49.960;8.018;2023-04-01T02:16:09;11.20;99.90
6988;DHT22;3534;49.960;8.018;2023-04-01T02:18:38;11.10;99.90
6988;DHT22;3534;49.960;8.018;2023-04-01T02:21:07;11.10;99.90
6988;DHT22;3534;49.960;8.018;2023-04-01T02:23:35;11.10;99.90
6988;DHT22;3534;49.960;8.018;2023-04-01T02:26:05;11.10;99.90
6988;DHT22;3534;49.960;8.018;2023-04-01T02:28:34;11.10;99.90
6988;DHT22;3534;49.960;8.018;2023-04-01T02:31:01;11.10;99.90
6988;DHT22;3534;49.960;8.018;2023-04-01T02:33:28;11.10;99.90
6988;DHT22;3534;49.960;8.018;2023-04-01T02:35:56;11.10;99.90
6988;DHT22;3534;49.960;8.018;2023-04-01T02:38:23;11.10;99.90
6988;DHT22;3534;49.960;8.018;2023-04-01T02:40:57;11.10;99.90
6988;DHT22;3534;49.960;8.018;2023-04-01T02:43:26;11.10;99.90
6988;DHT22;3534;49.960;8.018;2023-04-01T02:45:53;11.10;99.90
6988;DHT22;3534;49.960;8.018;2023-04-01T02:48:20;11.00;99.90
6988;DHT22;3534;49.960;8.018;2023-04-01T02:50:47;11.00;99.90
6988;DHT22;3534;49.960;8.018;2023-04-01T02:53:14;11.00;99.90
6988;DHT22;3534;49.960;8.018;2023-04-01T02:55:41;11.00;99.90
6988;DHT22;3534;49.960;8.018;2023-04-01T02:58:07;10.90;99.90
6988;DHT22;3534;49.960;8.018;2023-04-01T03:00:36;10.90;99.90
6988;DHT22;3534;49.960;8.018;2023-04-01T03:03:03;10.90;99.90
6988;DHT22;3534;49.960;8.018;2023-04-01T03:05:30;10.90;99.90
6988;DHT22;3534;49.960;8.018;2023-04-01T03:07:57;10.90;99.90
6988;DHT22;3534;49.960;8.018;2023-04-01T03:10:23;10.90;99.90
6988;DHT22;3534;49.960;8.018;2023-04-01T03:12:50;10.90;99.90
6988;DHT22;3534;49.960;8.018;2023-04-01T03:15:17;10.90;99.90
6988;DHT22;3534;49.960;8.018;2023-04-01T03:17:45;10.90;99.90
6988;DHT22;3534;49.960;8.018;2023-04-01T03:20:13;10.90;99.90
6988;DHT22;3534;49.960;8.018;2023-04-01T03:22:40;10.90;99.90
6988;DHT22;3534;49.960;8.018;2023-04-01T03:25:08;10.90;99.90
6988;DHT22;3534;49.960;8.018;2023-04-01T03:27:34;10.80;99.90
6988;DHT22;3534;49.960;8.018;2023-04-01T03:30:02;10.90;99.90
6988;DHT22;3534;49.960;8.018;2023-04-01T03:32:28;10.90;99.90
6988;DHT22;3534;49.960;8.018;2023-04-01T03:34:57;10.90;99.90
6988;DHT22;3534;49.960;8.018;2023-04-01T03:37:24;10.90;99.90
6988;DHT22;3534;49.960;8.018;2023-04-01T03:39:51;10.90;99.90
6988;DHT22;3534;49.960;8.018;2023-04-01T03:42:18;10.90;99.90
6988;DHT22;3534;49.960;8.018;2023-04-01T03:44:45;10.90;99.90
6988;DHT22;3534;49.960;8.018;2023-04-01T03:47:11;10.90;99.90
6988;DHT22;3534;49.960;8.018;2023-04-01T03:49:38;10.90;99.90
6988;DHT22;3534;49.960;8.018;2023-04-01T03:52:09;10.90;99.90
6988;DHT22;3534;49.960;8.018;2023-04-01T03:54:36;10.90;99.90
6988;DHT22;3534;49.960;8.018;2023-04-01T03:57:03;10.90;99.90
6988;DHT22;3534;49.960;8.018;2023-04-01T03:59:29;10.90;99.90
6988;DHT22;3534;49.960;8.018;2023-04-01T04:01:56;10.90;99.90
6988;DHT22;3534;49.960;8.018;2023-04-01T04:04:23;10.90;99.90
6988;DHT22;3534;49.960;8.018;2023-04-01T04:06:50;10.90;99.90
6988;DHT22;3534;49.960;8.018;2023-04-01T04:09:18;10.90;99.90
6988;DHT22;3534;49.960;8.018;2023-04-01T04:11:45;10.90;99.90
6988;DHT22;3534;49.960;8.018;2023-04-01T04:14:12;10.90;99.90
6988;DHT22;3534;49.960;8.018;2023-04-01T04:16:38;10.90;99.90
6988;DHT22;3534;49.960;8.018;2023-04-01T04:19:05;10.90;99.90
6988;DHT22;3534;49.960;8.018;2023-04-01T04:21:32;10.90;99.90
6988;DHT22;3534;49.960;8.018;2023-04-01T04:23:59;10.90;99.90
6988;DHT22;3534;49.960;8.018;2023-04-01T04:26:27;10.90;99.90
6988;DHT22;3534;49.960;8.018;2023-04-01T04:28:54;10.90;99.90
6988;DHT22;3534;49.960;8.018;2023-04-01T04:31:22;10.90;99.90
6988;DHT22;3534;49.960;8.018;2023-04-01T04:33:49;10.90;99.90
6988;DHT22;3534;49.960;8.018;2023-04-01T04:36:17;10.80;99.90
6988;DHT22;3534;49.960;8.018;2023-04-01T04:38:44;10.80;99.90
6988;DHT22;3534;49.960;8.018;2023-04-01T04:41:10;10.80;99.90
6988;DHT22;3534;49.960;8.018;2023-04-01T04:43:40;10.80;99.90
6988;DHT22;3534;49.960;8.018;2023-04-01T04:46:07;10.80;99.90
6988;DHT22;3534;49.960;8.018;2023-04-01T04:48:35;10.80;99.90
6988;DHT22;3534;49.960;8.018;2023-04-01T04:51:02;10.80;99.90
6988;DHT22;3534;49.960;8.018;2023-04-01T04:53:30;10.80;99.90
6988;DHT22;3534;49.960;8.018;2023-04-01T04:55:56;10.80;99.90
6988;DHT22;3534;49.960;8.018;2023-04-01T04:58:23;10.80;99.90
6988;DHT22;3534;49.960;8.018;2023-04-01T05:00:51;10.80;99.90
6988;DHT22;3534;49.960;8.018;2023-04-01T05:03:18;10.80;99.90
6988;DHT22;3534;49.960;8.018;2023-04-01T05:05:49;10.80;99.90
6988;DHT22;3534;49.960;8.018;2023-04-01T05:08:15;10.80;99.90
6988;DHT22;3534;49.960;8.018;2023-04-01T05:10:42;10.90;99.90
6988;DHT22;3534;49.960;8.018;2023-04-01T05:13:10;10.90;99.90
6988;DHT22;3534;49.960;8.018;2023-04-01T05:15:36;10.90;99.90
6988;DHT22;3534;49.960;8.018;2023-04-01T05:18:05;10.90;99.90
6988;DHT22;3534;49.960;8.018;2023-04-01T05:20:31;10.90;99.90
6988;DHT22;3534;49.960;8.018;2023-04-01T05:22:59;10.90;99.90
6988;DHT22;3534;49.960;8.018;2023-04-01T05:25:26;10.90;99.90
6988;DHT22;3534;49.960;8.018;2023-04-01T05:27:53;10.90;99.90
6988;DHT22;3534;49.960;8.018;2023-04-01T05:30:19;10.90;99.90
6988;DHT22;3534;49.960;8.018;2023-04-01T05:32:47;10.90;99.90
6988;DHT22;3534;49.960;8.018;2023-04-01T05:35:15;10.90;99.90
6988;DHT22;3534;49.960;8.018;2023-04-01T05:37:42;10.90;99.90
6988;DHT22;3534;49.960;8.018;2023-04-01T05:40:09;10.90;99.90
6988;DHT22;3534;49.960;8.018;2023-04-01T05:42:36;10.90;99.90
6988;DHT22;3534;49.960;8.018;2023-04-01T05:45:04;11.00;99.90
6988;DHT22;3534;49.960;8.018;2023-04-01T05:47:31;11.00;99.90
6988;DHT22;3534;49.960;8.018;2023-04-01T05:49:57;11.00;99.90
6988;DHT22;3534;49.960;8.018;2023-04-01T05:52:25;11.00;99.90
6988;DHT22;3534;49.960;8.018;2023-04-01T05:54:52;10.90;99.90
6988;DHT22;3534;49.960;8.018;2023-04-01T05:57:19;10.90;99.90
6988;DHT22;3534;49.960;8.018;2023-04-01T05:59:46;11.00;99.90
6988;DHT22;3534;49.960;8.018;2023-04-01T06:02:13;10.90;99.90
6988;DHT22;3534;49.960;8.018;2023-04-01T06:04:42;11.00;99.90
6988;DHT22;3534;49.960;8.018;2023-04-01T06:07:13;11.00;99.90
6988;DHT22;3534;49.960;8.018;2023-04-01T06:09:43;11.00;99.90
6988;DHT22;3534;49.960;8.018;2023-04-01T06:12:40;11.00;99.90
6988;DHT22;3534;49.960;8.018;2023-04-01T06:15:16;11.00;99.90
6988;DHT22;3534;49.960;8.018;2023-04-01T06:21:06;11.00;99.90
6988;DHT22;3534;49.960;8.018;2023-04-01T06:23:47;11.00;99.90
6988;DHT22;3534;49.960;8.018;2023-04-01T06:26:24;11.00;99.90
6988;DHT22;3534;49.960;8.018;2023-04-01T06:35:12;11.00;99.90
6988;DHT22;3534;49.960;8.018;2023-04-01T06:38:04;11.00;99.90
6988;DHT22;3534;49.960;8.018;2023-04-01T06:43:50;11.10;99.90
6988;DHT22;3534;49.960;8.018;2023-04-01T06:46:25;11.10;99.90
6988;DHT22;3534;49.960;8.018;2023-04-01T06:49:04;11.10;99.90
6988;DHT22;3534;49.960;8.018;2023-04-01T06:51:39;11.20;99.90
6988;DHT22;3534;49.960;8.018;2023-04-01T06:54:12;11.20;99.90
6988;DHT22;3534;49.960;8.018;2023-04-01T06:56:44;11.30;99.90
6988;DHT22;3534;49.960;8.018;2023-04-01T06:59:15;11.30;99.90
6988;DHT22;3534;49.960;8.018;2023-04-01T07:01:46;11.30;99.90
6988;DHT22;3534;49.960;8.018;2023-04-01T07:04:16;11.30;99.90
6988;DHT22;3534;49.960;8.018;2023-04-01T07:06:50;11.40;99.90
6988;DHT22;3534;49.960;8.018;2023-04-01T07:09:20;11.40;99.90
6988;DHT22;3534;49.960;8.018;2023-04-01T07:11:50;11.40;99.90
6988;DHT22;3534;49.960;8.018;2023-04-01T07:14:22;11.40;99.90
6988;DHT22;3534;49.960;8.018;2023-04-01T07:16:53;11.40;99.90
6988;DHT22;3534;49.960;8.018;2023-04-01T07:19:25;11.40;99.90
6988;DHT22;3534;49.960;8.018;2023-04-01T07:21:56;11.40;99.90
6988;DHT22;3534;49.960;8.018;2023-04-01T07:24:27;11.40;99.90
6988;DHT22;3534;49.960;8.018;2023-04-01T07:26:55;11.50;99.90
6988;DHT22;3534;49.960;8.018;2023-04-01T07:29:25;11.50;99.90
6988;DHT22;3534;49.960;8.018;2023-04-01T07:32:10;11.50;99.90
6988;DHT22;3534;49.960;8.018;2023-04-01T07:37:39;11.60;99.90
6988;DHT22;3534;49.960;8.018;2023-04-01T07:40:19;11.70;99.90
6988;DHT22;3534;49.960;8.018;2023-04-01T07:43:00;11.70;99.90
6988;DHT22;3534;49.960;8.018;2023-04-01T07:45:32;11.70;99.90
6988;DHT22;3534;49.960;8.018;2023-04-01T07:48:12;11.70;99.90
6988;DHT22;3534;49.960;8.018;2023-04-01T07:50:46;11.80;99.90
6988;DHT22;3534;49.960;8.018;2023-04-01T07:53:22;11.80;99.90
6988;DHT22;3534;49.960;8.018;2023-04-01T07:55:59;11.80;99.90
6988;DHT22;3534;49.960;8.018;2023-04-01T07:58:34;11.80;99.90
6988;DHT22;3534;49.960;8.018;2023-04-01T08:01:09;11.70;99.90
6988;DHT22;3534;49.960;8.018;2023-04-01T08:03:53;11.70;99.90
6988;DHT22;3534;49.960;8.018;2023-04-01T08:06:26;11.70;99.90
6988;DHT22;3534;49.960;8.018;2023-04-01T08:09:02;11.70;99.90
6988;DHT22;3534;49.960;8.018;2023-04-01T08:11:43;11.70;99.90
6988;DHT22;3534;49.960;8.018;2023-04-01T08:14:17;11.70;99.90
6988;DHT22;3534;49.960;8.018;2023-04-01T08:16:52;11.70;99.90
6988;DHT22;3534;49.960;8.018;2023-04-01T08:19:30;11.80;99.90
6988;DHT22;3534;49.960;8.018;2023-04-01T08:21:58;11.80;99.90
6988;DHT22;3534;49.960;8.018;2023-04-01T08:24:34;11.80;99.90
6988;DHT22;3534;49.960;8.018;2023-04-01T08:27:09;11.80;99.90
6988;DHT22;3534;49.960;8.018;2023-04-01T08:29:42;11.80;99.90
6988;DHT22;3534;49.960;8.018;2023-04-01T08:32:16;11.80;99.90
6988;DHT22;3534;49.960;8.018;2023-04-01T08:34:47;11.80;99.90
6988;DHT22;3534;49.960;8.018;2023-04-01T08:37:20;11.90;99.90
6988;DHT22;3534;49.960;8.018;2023-04-01T08:39:50;11.80;99.90
6988;DHT22;3534;49.960;8.018;2023-04-01T08:42:51;11.80;99.90
6988;DHT22;3534;49.960;8.018;2023-04-01T08:45:30;11.80;99.90
6988;DHT22;3534;49.960;8.018;2023-04-01T08:48:25;11.80;99.90
6988;DHT22;3534;49.960;8.018;2023-04-01T08:51:18;11.90;99.90
6988;DHT22;3534;49.960;8.018;2023-04-01T08:57:00;11.90;99.90
6988;DHT22;3534;49.960;8.018;2023-04-01T08:59:44;11.90;99.90
6988;DHT22;3534;49.960;8.018;2023-04-01T09:02:58;11.90;99.90
6988;DHT22;3534;49.960;8.018;2023-04-01T09:05:46;11.90;99.90
6988;DHT22;3534;49.960;8.018;2023-04-01T09:08:27;11.90;99.90
6988;DHT22;3534;49.960;8.018;2023-04-01T09:11:13;11.90;99.90
6988;DHT22;3534;49.960;8.018;2023-04-01T09:14:11;12.00;99.90
6988;DHT22;3534;49.960;8.018;2023-04-01T09:20:03;12.00;99.90
6988;DHT22;3534;49.960;8.018;2023-04-01T09:22:47;12.00;99.90
6988;DHT22;3534;49.960;8.018;2023-04-01T09:25:29;12.00;99.90
6988;DHT22;3534;49.960;8.018;2023-04-01T09:28:06;12.00;99.90
6988;DHT22;3534;49.960;8.018;2023-04-01T09:31:02;12.00;99.90
6988;DHT22;3534;49.960;8.018;2023-04-01T09:34:14;12.00;99.90
6988;DHT22;3534;49.960;8.018;2023-04-01T09:36:47;12.10;99.90
6988;DHT22;3534;49.960;8.018;2023-04-01T09:39:37;12.10;99.90
6988;DHT22;3534;49.960;8.018;2023-04-01T09:42:31;12.10;99.90
6988;DHT22;3534;49.960;8.018;2023-04-01T09:45:06;12.10;99.90
6988;DHT22;3534;49.960;8.018;2023-04-01T09:47:43;12.20;99.90
6988;DHT22;3534;49.960;8.018;2023-04-01T09:50:26;12.20;99.90
6988;DHT22;3534;49.960;8.018;2023-04-01T09:53:00;12.20;99.90
6988;DHT22;3534;49.960;8.018;2023-04-01T09:55:52;12.30;99.90
6988;DHT22;3534;49.960;8.018;2023-04-01T09:58:47;12.30;99.90
6988;DHT22;3534;49.960;8.018;2023-04-01T10:01:34;12.40;99.90
6988;DHT22;3534;49.960;8.018;2023-04-01T10:07:43;12.40;99.90
6988;DHT22;3534;49.960;8.018;2023-04-01T10:16:41;12.40;99.90
6988;DHT22;3534;49.960;8.018;2023-04-01T10:22:22;12.40;99.90
6988;DHT22;3534;49.960;8.018;2023-04-01T10:28:22;12.50;99.90
6988;DHT22;3534;49.960;8.018;2023-04-01T10:36:56;12.60;99.90
6988;DHT22;3534;49.960;8.018;2023-04-01T10:43:05;12.60;99.90
6988;DHT22;3534;49.960;8.018;2023-04-01T10:46:06;12.70;99.90
6988;DHT22;3534;49.960;8.018;2023-04-01T10:49:28;12.70;99.90
6988;DHT22;3534;49.960;8.018;2023-04-01T10:55:25;12.70;99.90
6988;DHT22;3534;49.960;8.018;2023-04-01T11:13:47;12.80;99.90
6988;DHT22;3534;49.960;8.018;2023-04-01T11:19:46;12.80;99.90
6988;DHT22;3534;49.960;8.018;2023-04-01T11:22:44;12.80;99.90
6988;DHT22;3534;49.960;8.018;2023-04-01T11:31:35;12.80;99.90
6988;DHT22;3534;49.960;8.018;2023-04-01T11:34:22;12.90;99.90
6988;DHT22;3534;49.960;8.018;2023-04-01T11:37:03;12.90;99.90
6988;DHT22;3534;49.960;8.018;2023-04-01T11:39:37;12.80;99.90
6988;DHT22;3534;49.960;8.018;2023-04-01T11:42:16;12.90;99.90
6988;DHT22;3534;49.960;8.018;2023-04-01T11:44:51;12.90;99.90
6988;DHT22;3534;49.960;8.018;2023-04-01T11:47:40;12.90;99.90
6988;DHT22;3534;49.960;8.018;2023-04-01T11:50:20;12.90;99.90
6988;DHT22;3534;49.960;8.018;2023-04-01T11:53:09;12.90;99.90
6988;DHT22;3534;49.960;8.018;2023-04-01T11:55:46;12.90;99.90
6988;DHT22;3534;49.960;8.018;2023-04-01T12:01:25;12.90;99.90
6988;DHT22;3534;49.960;8.018;2023-04-01T12:04:12;12.90;99.90
6988;DHT22;3534;49.960;8.018;2023-04-01T12:06:52;12.80;99.90
6988;DHT22;3534;49.960;8.018;2023-04-01T12:09:33;12.80;99.90
6988;DHT22;3534;49.960;8.018;2023-04-01T12:12:11;12.80;99.90
6988;DHT22;3534;49.960;8.018;2023-04-01T12:14:44;12.80;99.90
6988;DHT22;3534;49.960;8.018;2023-04-01T12:17:25;12.70;99.90
6988;DHT22;3534;49.960;8.018;2023-04-01T12:19:58;12.70;99.90
6988;DHT22;3534;49.960;8.018;2023-04-01T12:22:35;12.60;99.90
6988;DHT22;3534;49.960;8.018;2023-04-01T12:25:21;12.60;99.90
6988;DHT22;3534;49.960;8.018;2023-04-01T12:28:01;12.60;99.90
6988;DHT22;3534;49.960;8.018;2023-04-01T12:30:57;12.60;99.90
6988;DHT22;3534;49.960;8.018;2023-04-01T12:33:52;12.60;99.90
6988;DHT22;3534;49.960;8.018;2023-04-01T12:36:40;12.60;99.90
6988;DHT22;3534;49.960;8.018;2023-04-01T12:39:28;12.60;99.90
6988;DHT22;3534;49.960;8.018;2023-04-01T12:42:07;12.60;99.90
6988;DHT22;3534;49.960;8.018;2023-04-01T12:44:57;12.60;99.90
6988;DHT22;3534;49.960;8.018;2023-04-01T12:47:51;12.70;99.90
6988;DHT22;3534;49.960;8.018;2023-04-01T12:50:37;12.80;99.90
6988;DHT22;3534;49.960;8.018;2023-04-01T12:53:16;12.90;99.90
6988;DHT22;3534;49.960;8.018;2023-04-01T12:55:45;13.10;99.90
6988;DHT22;3534;49.960;8.018;2023-04-01T12:58:38;13.10;99.90
6988;DHT22;3534;49.960;8.018;2023-04-01T13:01:22;13.20;99.90
6988;DHT22;3534;49.960;8.018;2023-04-01T13:04:13;13.30;99.90
6988;DHT22;3534;49.960;8.018;2023-04-01T13:06:53;13.40;99.90
6988;DHT22;3534;49.960;8.018;2023-04-01T13:09:35;13.60;99.90
6988;DHT22;3534;49.960;8.018;2023-04-01T13:12:29;13.70;99.90
6988;DHT22;3534;49.960;8.018;2023-04-01T13:15:16;13.80;99.90
6988;DHT22;3534;49.960;8.018;2023-04-01T13:17:50;13.80;99.90
6988;DHT22;3534;49.960;8.018;2023-04-01T13:20:26;13.70;99.90
6988;DHT22;3534;49.960;8.018;2023-04-01T13:23:05;13.70;99.90
6988;DHT22;3534;49.960;8.018;2023-04-01T13:25:39;13.80;99.90
6988;DHT22;3534;49.960;8.018;2023-04-01T13:28:13;13.80;99.90
6988;DHT22;3534;49.960;8.018;2023-04-01T13:30:49;13.80;99.90
6988;DHT22;3534;49.960;8.018;2023-04-01T13:33:26;13.80;99.90
6988;DHT22;3534;49.960;8.018;2023-04-01T13:36:03;13.70;99.90
6988;DHT22;3534;49.960;8.018;2023-04-01T13:38:51;13.70;99.90
6988;DHT22;3534;49.960;8.018;2023-04-01T13:41:37;13.60;99.90
6988;DHT22;3534;49.960;8.018;2023-04-01T13:44:09;13.60;99.90
6988;DHT22;3534;49.960;8.018;2023-04-01T13:46:52;13.60;99.90
6988;DHT22;3534;49.960;8.018;2023-04-01T13:49:46;13.60;99.90
6988;DHT22;3534;49.960;8.018;2023-04-01T13:52:38;13.50;99.90
6988;DHT22;3534;49.960;8.018;2023-04-01T13:55:23;13.50;99.90
6988;DHT22;3534;49.960;8.018;2023-04-01T13:58:11;13.60;99.90
6988;DHT22;3534;49.960;8.018;2023-04-01T14:00:48;13.60;99.90
6988;DHT22;3534;49.960;8.018;2023-04-01T14:03:30;13.50;99.90
6988;DHT22;3534;49.960;8.018;2023-04-01T14:06:09;13.60;99.90
6988;DHT22;3534;49.960;8.018;2023-04-01T14:11:36;13.60;99.90
6988;DHT22;3534;49.960;8.018;2023-04-01T14:14:14;13.60;99.90
6988;DHT22;3534;49.960;8.018;2023-04-01T14:16:59;13.70;99.90
6988;DHT22;3534;49.960;8.018;2023-04-01T14:22:39;13.70;99.90
6988;DHT22;3534;49.960;8.018;2023-04-01T14:25:32;13.80;99.90
6988;DHT22;3534;49.960;8.018;2023-04-01T14:28:08;13.80;99.90
6988;DHT22;3534;49.960;8.018;2023-04-01T14:30:54;13.80;99.90
6988;DHT22;3534;49.960;8.018;2023-04-01T14:33:34;13.80;99.90
6988;DHT22;3534;49.960;8.018;2023-04-01T14:36:37;13.80;99.90
6988;DHT22;3534;49.960;8.018;2023-04-01T14:39:20;13.80;99.90
6988;DHT22;3534;49.960;8.018;2023-04-01T14:42:02;13.80;99.90
6988;DHT22;3534;49.960;8.018;2023-04-01T14:44:50;13.70;99.90
6988;DHT22;3534;49.960;8.018;2023-04-01T14:47:34;13.70;99.90
6988;DHT22;3534;49.960;8.018;2023-04-01T14:50:08;13.70;99.90
6988;DHT22;3534;49.960;8.018;2023-04-01T14:52:39;13.70;99.90
6988;DHT22;3534;49.960;8.018;2023-04-01T14:55:23;13.70;99.90
6988;DHT22;3534;49.960;8.018;2023-04-01T14:58:00;13.70;99.90
6988;DHT22;3534;49.960;8.018;2023-04-01T15:00:41;13.70;99.90
6988;DHT22;3534;49.960;8.018;2023-04-01T15:03:16;13.80;99.90
6988;DHT22;3534;49.960;8.018;2023-04-01T15:05:49;13.80;99.90
6988;DHT22;3534;49.960;8.018;2023-04-01T15:08:21;13.80;99.90
6988;DHT22;3534;49.960;8.018;2023-04-01T15:11:03;13.80;99.90
6988;DHT22;3534;49.960;8.018;2023-04-01T15:13:50;14.00;99.90
6988;DHT22;3534;49.960;8.018;2023-04-01T15:16:25;14.20;99.90
6988;DHT22;3534;49.960;8.018;2023-04-01T15:19:04;14.30;99.90
6988;DHT22;3534;49.960;8.018;2023-04-01T15:21:48;14.30;99.90
6988;DHT22;3534;49.960;8.018;2023-04-01T15:24:22;14.20;99.90
6988;DHT22;3534;49.960;8.018;2023-04-01T15:27:10;14.10;99.90
6988;DHT22;3534;49.960;8.018;2023-04-01T15:29:47;14.00;99.90
6988;DHT22;3534;49.960;8.018;2023-04-01T15:32:21;13.90;99.90
6988;DHT22;3534;49.960;8.018;2023-04-01T15:34:57;13.80;99.90
6988;DHT22;3534;49.960;8.018;2023-04-01T15:37:33;13.70;99.90
6988;DHT22;3534;49.960;8.018;2023-04-01T15:40:16;13.60;99.90
6988;DHT22;3534;49.960;8.018;2023-04-01T15:42:55;13.60;99.90
6988;DHT22;3534;49.960;8.018;2023-04-01T15:45:34;13.60;99.90
6988;DHT22;3534;49.960;8.018;2023-04-01T15:48:13;13.60;99.90
6988;DHT22;3534;49.960;8.018;2023-04-01T15:50:54;13.50;99.90
6988;DHT22;3534;49.960;8.018;2023-04-01T15:53:50;13.40;99.90
6988;DHT22;3534;49.960;8.018;2023-04-01T15:56:30;13.40;99.90
6988;DHT22;3534;49.960;8.018;2023-04-01T15:59:14;13.40;99.90
6988;DHT22;3534;49.960;8.018;2023-04-01T16:01:52;13.40;99.90
6988;DHT22;3534;49.960;8.018;2023-04-01T16:04:36;13.40;99.90
6988;DHT22;3534;49.960;8.018;2023-04-01T16:07:15;13.30;99.90
6988;DHT22;3534;49.960;8.018;2023-04-01T16:09:59;13.30;99.90
6988;DHT22;3534;49.960;8.018;2023-04-01T16:12:44;13.30;99.90
6988;DHT22;3534;49.960;8.018;2023-04-01T16:15:21;13.30;99.90
6988;DHT22;3534;49.960;8.018;2023-04-01T16:18:09;13.20;99.90
6988;DHT22;3534;49.960;8.018;2023-04-01T16:20:46;13.20;99.90
6988;DHT22;3534;49.960;8.018;2023-04-01T16:23:20;13.20;99.90
6988;DHT22;3534;49.960;8.018;2023-04-01T16:25:52;13.20;99.90
6988;DHT22;3534;49.960;8.018;2023-04-01T16:28:24;13.20;99.90
6988;DHT22;3534;49.960;8.018;2023-04-01T16:30:57;13.10;99.90
6988;DHT22;3534;49.960;8.018;2023-04-01T16:33:32;13.10;99.90
6988;DHT22;3534;49.960;8.018;2023-04-01T16:36:08;13.10;99.90
6988;DHT22;3534;49.960;8.018;2023-04-01T16:38:39;13.10;99.90
6988;DHT22;3534;49.960;8.018;2023-04-01T16:41:12;13.00;99.90
6988;DHT22;3534;49.960;8.018;2023-04-01T16:43:44;13.00;99.90
6988;DHT22;3534;49.960;8.018;2023-04-01T16:46:21;13.00;99.90
6988;DHT22;3534;49.960;8.018;2023-04-01T16:48:59;13.00;99.90
6988;DHT22;3534;49.960;8.018;2023-04-01T16:51:34;13.00;99.90
6988;DHT22;3534;49.960;8.018;2023-04-01T16:54:06;13.00;99.90
6988;DHT22;3534;49.960;8.018;2023-04-01T16:56:40;12.90;99.90
6988;DHT22;3534;49.960;8.018;2023-04-01T16:59:19;12.90;99.90
6988;DHT22;3534;49.960;8.018;2023-04-01T17:01:51;12.90;99.90
6988;DHT22;3534;49.960;8.018;2023-04-01T17:04:29;12.90;99.90
6988;DHT22;3534;49.960;8.018;2023-04-01T17:07:05;12.90;99.90
6988;DHT22;3534;49.960;8.018;2023-04-01T17:09:44;12.90;99.90
6988;DHT22;3534;49.960;8.018;2023-04-01T17:12:18;12.80;99.90
6988;DHT22;3534;49.960;8.018;2023-04-01T17:14:52;12.80;99.90
6988;DHT22;3534;49.960;8.018;2023-04-01T17:17:38;12.80;99.90
6988;DHT22;3534;49.960;8.018;2023-04-01T17:20:19;12.80;99.90
6988;DHT22;3534;49.960;8.018;2023-04-01T17:22:54;12.80;99.90
6988;DHT22;3534;49.960;8.018;2023-04-01T17:25:48;12.80;99.90
6988;DHT22;3534;49.960;8.018;2023-04-01T17:28:27;12.80;99.90
6988;DHT22;3534;49.960;8.018;2023-04-01T17:31:07;12.90;99.90
6988;DHT22;3534;49.960;8.018;2023-04-01T17:33:51;12.90;99.90
6988;DHT22;3534;49.960;8.018;2023-04-01T17:36:32;12.80;99.90
6988;DHT22;3534;49.960;8.018;2023-04-01T17:39:22;12.80;99.90
6988;DHT22;3534;49.960;8.018;2023-04-01T17:41:54;12.80;99.90
6988;DHT22;3534;49.960;8.018;2023-04-01T17:44:36;12.80;99.90
6988;DHT22;3534;49.960;8.018;2023-04-01T17:47:17;12.80;99.90
6988;DHT22;3534;49.960;8.018;2023-04-01T17:49:54;12.70;99.90
6988;DHT22;3534;49.960;8.018;2023-04-01T17:52:27;12.70;99.90
6988;DHT22;3534;49.960;8.018;2023-04-01T17:55:04;12.70;99.90
6988;DHT22;3534;49.960;8.018;2023-04-01T17:57:45;12.70;99.90
6988;DHT22;3534;49.960;8.018;2023-04-01T18:00:24;12.70;99.90
6988;DHT22;3534;49.960;8.018;2023-04-01T18:03:05;12.70;99.90
6988;DHT22;3534;49.960;8.018;2023-04-01T18:05:52;12.60;99.90
6988;DHT22;3534;49.960;8.018;2023-04-01T18:08:40;12.60;99.90
6988;DHT22;3534;49.960;8.018;2023-04-01T18:11:15;12.60;99.90
6988;DHT22;3534;49.960;8.018;2023-04-01T18:14:21;12.60;99.90
6988;DHT22;3534;49.960;8.018;2023-04-01T18:17:04;12.60;99.90
6988;DHT22;3534;49.960;8.018;2023-04-01T18:19:42;12.50;99.90
6988;DHT22;3534;49.960;8.018;2023-04-01T18:22:18;12.50;99.90
6988;DHT22;3534;49.960;8.018;2023-04-01T18:24:49;12.50;99.90
6988;DHT22;3534;49.960;8.018;2023-04-01T18:27:24;12.50;99.90
6988;DHT22;3534;49.960;8.018;2023-04-01T18:30:00;12.50;99.90
6988;DHT22;3534;49.960;8.018;2023-04-01T18:32:34;12.50;99.90